createdAt,value
2019-02-07T00:00:47.433Z,23.20
2019-02-07T00:03:42.244Z,23.20
2019-02-07T00:06:36.962Z,23.20
2019-02-07T00:09:31.443Z,23.20
2019-02-07T00:12:26.977Z,23.20
2019-02-07T00:15:22.142Z,23.10
2019-02-07T00:18:17.040Z,23.10
2019-02-07T00:21:11.838Z,23.10
2019-02-07T00:24:06.658Z,23.10
2019-02-07T00:27:01.534Z,23.10
2019-02-07T00:29:56.351Z,23.10
2019-02-07T00:32:51.433Z,23.10
2019-02-07T00:35:46.012Z,23.10
2019-02-07T00:38:41.140Z,23.10
2019-02-07T00:41:35.951Z,23.10
2019-02-07T00:44:30.764Z,23.20
2019-02-07T00:47:25.589Z,23.20
2019-02-07T00:50:20.780Z,23.10
2019-02-07T00:53:16.140Z,23.00
2019-02-07T00:56:10.679Z,23.10
2019-02-07T00:59:05.699Z,23.00
2019-02-07T01:02:00.554Z,23.00
2019-02-07T01:04:55.467Z,22.90
2019-02-07T01:07:50.369Z,22.90
2019-02-07T01:10:45.752Z,22.90
2019-02-07T01:13:40.867Z,22.80
2019-02-07T01:16:36.132Z,22.80
2019-02-07T01:19:32.346Z,22.80
2019-02-07T01:22:27.860Z,22.80
2019-02-07T01:25:24.041Z,22.80
2019-02-07T01:28:18.956Z,22.80
2019-02-07T01:31:13.872Z,22.80
2019-02-07T01:34:09.187Z,22.80
2019-02-07T01:37:03.760Z,22.80
2019-02-07T01:39:58.343Z,22.80
2019-02-07T01:42:55.884Z,22.80
2019-02-07T01:45:50.554Z,22.80
2019-02-07T01:48:44.985Z,22.80
2019-02-07T01:51:39.855Z,22.80
2019-02-07T01:54:34.812Z,22.80
2019-02-07T01:57:29.717Z,22.80
2019-02-07T02:00:25.405Z,22.80
2019-02-07T02:03:20.221Z,22.80
2019-02-07T02:06:15.706Z,22.80
2019-02-07T02:09:13.176Z,22.80
2019-02-07T02:12:08.578Z,22.80
2019-02-07T02:15:03.638Z,22.80
2019-02-07T02:18:00.109Z,22.80
2019-02-07T02:20:55.080Z,22.80
2019-02-07T02:23:50.172Z,22.80
2019-02-07T02:26:44.648Z,22.80
2019-02-07T02:29:39.641Z,22.80
2019-02-07T02:32:34.800Z,22.80
2019-02-07T02:35:30.282Z,22.80
2019-02-07T02:38:25.748Z,22.80
2019-02-07T02:41:20.769Z,22.80
2019-02-07T02:44:15.619Z,22.90
2019-02-07T02:47:10.726Z,22.90
2019-02-07T02:50:06.237Z,22.90
2019-02-07T02:53:01.195Z,22.90
2019-02-07T02:55:57.761Z,22.90
2019-02-07T02:58:52.837Z,22.90
2019-02-07T03:02:00.820Z,22.90
2019-02-07T03:05:02.394Z,23.00
2019-02-07T03:08:17.930Z,23.10
2019-02-07T03:11:28.839Z,23.10
2019-02-07T03:14:47.528Z,23.10
2019-02-07T03:18:04.764Z,23.10
2019-02-07T03:21:18.190Z,23.20
2019-02-07T03:24:36.910Z,23.20
2019-02-07T03:27:49.867Z,23.20
2019-02-07T03:31:11.193Z,23.30
2019-02-07T03:34:22.224Z,23.30
2019-02-07T03:37:35.937Z,23.30
2019-02-07T03:40:51.490Z,23.30
2019-02-07T03:44:13.244Z,23.30
2019-02-07T03:47:20.393Z,23.40
2019-02-07T03:50:27.370Z,23.40
2019-02-07T03:53:39.393Z,23.40
2019-02-07T03:56:52.249Z,23.50
2019-02-07T04:00:17.124Z,23.50
2019-02-07T04:03:30.173Z,23.60
2019-02-07T04:06:39.383Z,23.60
2019-02-07T04:09:55.090Z,23.70
2019-02-07T04:13:12.274Z,23.70
2019-02-07T04:16:16.007Z,23.80
2019-02-07T04:19:43.452Z,23.90
2019-02-07T04:23:09.557Z,23.90
2019-02-07T04:26:28.039Z,24.00
2019-02-07T04:29:43.780Z,24.00
2019-02-07T04:32:59.887Z,24.10
2019-02-07T04:36:14.803Z,24.10
2019-02-07T04:39:29.455Z,24.20
2019-02-07T04:42:47.223Z,24.20
2019-02-07T04:46:12.083Z,24.30
2019-02-07T04:49:30.026Z,24.40
2019-02-07T04:52:41.186Z,24.40
2019-02-07T04:55:56.416Z,24.50
2019-02-07T04:59:28.571Z,24.60
2019-02-07T05:05:27.665Z,24.60
2019-02-07T05:08:40.348Z,24.80
2019-02-07T05:11:56.362Z,24.80
2019-02-07T05:15:09.171Z,24.90
2019-02-07T05:18:28.977Z,25.00
2019-02-07T05:22:09.028Z,25.10
2019-02-07T05:28:58.086Z,25.30
2019-02-07T05:32:23.950Z,25.30
2019-02-07T05:35:30.089Z,25.40
2019-02-07T05:38:55.800Z,25.50
2019-02-07T05:46:12.706Z,25.70
2019-02-07T05:49:28.159Z,25.80
2019-02-07T05:52:53.903Z,25.80
2019-02-07T05:59:53.143Z,26.00
2019-02-07T06:03:05.736Z,26.10
2019-02-07T06:06:28.425Z,26.20
2019-02-07T06:09:55.316Z,26.30
2019-02-07T06:13:17.760Z,26.40
2019-02-07T06:16:34.432Z,26.40
2019-02-07T06:19:45.759Z,26.60
2019-02-07T06:22:49.106Z,26.60
2019-02-07T06:26:00.462Z,26.70
2019-02-07T06:29:13.167Z,26.80
2019-02-07T06:32:26.979Z,26.80
2019-02-07T06:35:41.935Z,26.90
2019-02-07T06:39:03.582Z,27.00
2019-02-07T06:42:12.518Z,27.10
2019-02-07T06:45:36.555Z,27.10
2019-02-07T06:48:46.702Z,27.20
2019-02-07T06:52:16.603Z,27.30
2019-02-07T06:55:31.694Z,27.40
2019-02-07T06:58:43.606Z,27.40
2019-02-07T07:01:55.954Z,27.50
2019-02-07T07:05:08.451Z,27.60
2019-02-07T07:08:27.318Z,27.70
2019-02-07T07:11:54.813Z,27.90
2019-02-07T07:15:17.243Z,28.00
2019-02-07T07:18:39.406Z,28.20
2019-02-07T07:21:57.462Z,28.30
2019-02-07T07:25:08.731Z,28.40
2019-02-07T07:28:25.120Z,28.60
2019-02-07T07:31:50.678Z,28.70
2019-02-07T07:35:42.104Z,28.80
2019-02-07T07:39:11.397Z,28.90
2019-02-07T07:42:32.321Z,29.00
2019-02-07T07:45:51.347Z,29.10
2019-02-07T07:48:58.816Z,29.20
2019-02-07T07:52:11.798Z,29.20
2019-02-07T07:55:48.375Z,29.30
2019-02-07T07:59:05.713Z,29.30
2019-02-07T08:02:32.666Z,29.30
2019-02-07T08:05:55.169Z,29.20
2019-02-07T08:09:12.687Z,29.20
2019-02-07T08:12:21.240Z,29.20
2019-02-07T08:15:38.119Z,29.20
2019-02-07T08:19:10.604Z,29.20
2019-02-07T08:22:24.570Z,29.20
2019-02-07T08:25:50.104Z,29.30
2019-02-07T08:29:07.154Z,29.30
2019-02-07T08:32:23.730Z,29.30
2019-02-07T08:35:30.244Z,29.30
2019-02-07T08:38:46.634Z,29.30
2019-02-07T08:42:07.083Z,29.30
2019-02-07T08:45:30.863Z,29.30
2019-02-07T08:50:05.834Z,29.30
2019-02-07T08:52:14.091Z,29.40
2019-02-07T08:55:43.305Z,29.40
2019-02-07T08:59:01.005Z,29.50
2019-02-07T09:02:14.497Z,29.70
2019-02-07T09:09:31.671Z,29.90
2019-02-07T09:12:41.775Z,30.00
2019-02-07T09:15:58.719Z,30.20
2019-02-07T09:19:18.711Z,30.30
2019-02-07T09:23:16.879Z,30.40
2019-02-07T09:26:35.846Z,30.50
2019-02-07T09:30:07.651Z,30.70
2019-02-07T09:33:49.979Z,30.80
2019-02-07T09:37:03.438Z,31.00
2019-02-07T09:40:27.333Z,31.20
2019-02-07T09:43:46.472Z,31.50
2019-02-07T09:47:10.136Z,31.70
2019-02-07T09:50:22.900Z,32.00
2019-02-07T09:53:27.385Z,32.30
2019-02-07T09:56:55.998Z,32.50
2019-02-07T10:00:07.868Z,32.70
2019-02-07T10:03:54.145Z,32.90
2019-02-07T10:07:22.685Z,32.90
2019-02-07T10:10:50.558Z,32.90
2019-02-07T10:14:03.737Z,32.80
2019-02-07T10:17:15.409Z,32.70
2019-02-07T10:20:31.775Z,32.60
2019-02-07T10:23:46.266Z,32.40
2019-02-07T10:26:53.522Z,32.30
2019-02-07T10:33:51.977Z,32.10
2019-02-07T10:37:15.048Z,32.10
2019-02-07T10:40:24.714Z,32.00
2019-02-07T10:43:38.235Z,31.90
2019-02-07T10:46:52.673Z,31.80
2019-02-07T10:50:05.087Z,31.80
2019-02-07T10:53:36.202Z,31.70
2019-02-07T10:57:02.167Z,31.70
2019-02-07T11:00:19.324Z,31.60
2019-02-07T11:03:32.487Z,31.60
2019-02-07T11:06:47.263Z,31.50
2019-02-07T11:10:04.086Z,31.50
2019-02-07T11:13:17.362Z,31.40
2019-02-07T11:16:34.141Z,31.40
2019-02-07T11:19:58.745Z,31.30
2019-02-07T11:23:16.637Z,31.30
2019-02-07T11:26:39.558Z,31.20
2019-02-07T11:29:42.173Z,31.10
2019-02-07T11:33:03.547Z,31.00
2019-02-07T11:36:21.786Z,30.90
2019-02-07T11:39:44.336Z,30.80
2019-02-07T11:43:03.802Z,30.70
2019-02-07T11:47:05.163Z,30.60
2019-02-07T11:50:18.927Z,30.50
2019-02-07T11:53:44.124Z,30.40
2019-02-07T11:57:00.214Z,30.30
2019-02-07T12:00:15.478Z,30.20
2019-02-07T12:03:31.784Z,30.10
2019-02-07T12:06:47.760Z,30.10
2019-02-07T12:10:01.114Z,30.00
2019-02-07T12:13:15.536Z,29.90
2019-02-07T12:16:21.299Z,29.80
2019-02-07T12:19:39.897Z,29.70
2019-02-07T12:23:02.244Z,29.60
2019-02-07T12:26:17.892Z,29.60
2019-02-07T12:29:37.159Z,29.50
2019-02-07T12:32:59.354Z,29.40
2019-02-07T12:36:10.088Z,29.30
2019-02-07T12:39:35.023Z,29.30
2019-02-07T12:42:41.709Z,29.20
2019-02-07T12:45:46.849Z,29.10
2019-02-07T12:49:28.723Z,29.00
2019-02-07T12:52:30.472Z,29.00
2019-02-07T12:55:52.014Z,28.90
2019-02-07T12:58:51.985Z,28.90
2019-02-07T13:02:03.728Z,28.80
2019-02-07T13:05:16.610Z,28.70
2019-02-07T13:08:28.917Z,28.70
2019-02-07T13:11:44.598Z,28.70
2019-02-07T13:15:08.497Z,28.60
2019-02-07T13:18:33.010Z,28.60
2019-02-07T13:22:00.959Z,28.50
2019-02-07T13:25:35.100Z,28.50
2019-02-07T13:28:51.077Z,28.40
2019-02-07T13:32:06.635Z,28.40
2019-02-07T13:35:17.929Z,28.40
2019-02-07T13:38:33.145Z,28.30
2019-02-07T13:41:49.459Z,28.30
2019-02-07T13:45:07.534Z,28.30
2019-02-07T13:48:19.387Z,28.30
2019-02-07T13:51:38.488Z,28.30
2019-02-07T13:54:56.640Z,28.20
2019-02-07T13:58:06.353Z,28.20
2019-02-07T14:01:17.645Z,28.20
2019-02-07T14:04:32.940Z,28.20
2019-02-07T14:08:01.593Z,28.10
2019-02-07T14:11:29.676Z,28.10
2019-02-07T14:14:52.854Z,28.10
2019-02-07T14:18:03.914Z,28.10
2019-02-07T14:21:20.328Z,28.00
2019-02-07T14:24:25.395Z,28.00
2019-02-07T14:27:44.158Z,28.00
2019-02-07T14:30:57.460Z,28.00
2019-02-07T14:34:08.821Z,27.90
2019-02-07T14:37:26.962Z,27.90
2019-02-07T14:40:57.794Z,27.80
2019-02-07T14:44:16.288Z,27.80
2019-02-07T14:47:10.952Z,27.80
2019-02-07T14:50:14.542Z,27.70
2019-02-07T14:53:02.190Z,27.70
2019-02-07T14:55:57.093Z,27.70
2019-02-07T14:58:52.089Z,27.70
2019-02-07T15:01:48.030Z,27.60
2019-02-07T15:04:43.051Z,27.60
2019-02-07T15:07:38.479Z,27.60
2019-02-07T15:10:34.163Z,27.60
2019-02-07T15:13:29.448Z,27.60
2019-02-07T15:16:24.473Z,27.50
2019-02-07T15:19:19.642Z,27.50
2019-02-07T15:22:15.422Z,27.50
2019-02-07T15:25:10.763Z,27.50
2019-02-07T15:28:06.241Z,27.50
2019-02-07T15:31:01.436Z,27.50
2019-02-07T15:33:56.651Z,27.50
2019-02-07T15:36:53.649Z,27.40
2019-02-07T15:39:48.937Z,27.40
2019-02-07T15:42:44.817Z,27.40
2019-02-07T15:45:39.881Z,27.40
2019-02-07T15:48:35.743Z,27.40
2019-02-07T15:51:31.322Z,27.40
2019-02-07T15:54:27.072Z,27.40
2019-02-07T15:57:21.733Z,27.30
2019-02-07T16:00:31.836Z,27.30
2019-02-07T16:03:33.408Z,27.20
2019-02-07T16:06:28.613Z,27.20
2019-02-07T16:09:24.156Z,27.20
2019-02-07T16:12:20.938Z,27.10
2019-02-07T16:15:17.160Z,27.10
2019-02-07T16:18:12.368Z,27.10
2019-02-07T16:21:07.661Z,27.10
2019-02-07T16:24:02.937Z,27.00
2019-02-07T16:26:57.817Z,27.00
2019-02-07T16:29:52.834Z,27.00
2019-02-07T16:32:48.076Z,26.90
2019-02-07T16:35:43.283Z,26.90
2019-02-07T16:38:39.928Z,26.90
2019-02-07T16:41:35.795Z,26.80
2019-02-07T16:44:30.448Z,26.80
2019-02-07T16:47:25.703Z,26.80
2019-02-07T16:50:21.959Z,26.80
2019-02-07T16:53:17.151Z,26.80
2019-02-07T16:56:12.286Z,26.70
2019-02-07T16:59:07.872Z,26.70
2019-02-07T17:02:02.795Z,26.70
2019-02-07T17:04:57.941Z,26.70
2019-02-07T17:07:53.297Z,26.70
2019-02-07T17:10:48.415Z,26.60
2019-02-07T17:13:45.410Z,26.60
2019-02-07T17:16:40.430Z,26.60
2019-02-07T17:19:35.292Z,26.60
2019-02-07T17:22:30.996Z,26.60
2019-02-07T17:25:26.642Z,26.60
2019-02-07T17:28:21.737Z,26.60
2019-02-07T17:31:16.443Z,26.60
2019-02-07T17:34:11.488Z,26.50
2019-02-07T17:37:06.969Z,26.50
2019-02-07T17:40:01.584Z,26.50
2019-02-07T17:42:57.366Z,26.50
2019-02-07T17:45:51.849Z,26.50
2019-02-07T17:48:46.427Z,26.50
2019-02-07T17:51:41.562Z,26.50
2019-02-07T17:54:36.451Z,26.50
2019-02-07T17:57:31.420Z,26.50
2019-02-07T18:00:57.334Z,26.50
2019-02-07T18:03:51.638Z,26.50
2019-02-07T18:06:46.371Z,26.50
2019-02-07T18:09:41.316Z,26.50
2019-02-07T18:12:36.923Z,26.50
2019-02-07T18:15:32.360Z,26.50
2019-02-07T18:18:26.986Z,26.50
2019-02-07T18:21:21.584Z,26.50
2019-02-07T18:24:16.609Z,26.50
2019-02-07T18:27:11.203Z,26.50
2019-02-07T18:30:08.943Z,26.40
2019-02-07T18:33:04.536Z,26.50
2019-02-07T18:35:59.662Z,26.50
2019-02-07T18:38:54.505Z,26.40
2019-02-07T18:41:49.308Z,26.40
2019-02-07T18:44:44.039Z,26.40
2019-02-07T18:47:39.034Z,26.40
2019-02-07T18:50:36.722Z,26.40
2019-02-07T18:53:31.921Z,26.40
2019-02-07T18:56:26.790Z,26.40
2019-02-07T18:59:21.557Z,26.50
2019-02-07T19:02:16.723Z,26.50
2019-02-07T19:05:13.548Z,26.50
2019-02-07T19:08:08.535Z,26.40
2019-02-07T19:11:03.337Z,26.50
2019-02-07T19:13:58.175Z,26.50
2019-02-07T19:16:53.361Z,26.50
2019-02-07T19:19:48.208Z,26.50
2019-02-07T19:22:43.158Z,26.50
2019-02-07T19:25:37.841Z,26.50
2019-02-07T19:28:32.577Z,26.50
2019-02-07T19:31:28.548Z,26.40
2019-02-07T19:34:23.197Z,26.40
2019-02-07T19:37:17.986Z,26.40
2019-02-07T19:40:14.065Z,26.40
2019-02-07T19:43:09.154Z,26.40
2019-02-07T19:46:03.727Z,26.30
2019-02-07T19:49:00.232Z,26.30
2019-02-07T19:51:55.449Z,26.30
2019-02-07T19:54:50.470Z,26.30
2019-02-07T19:57:45.406Z,26.20
2019-02-07T20:00:40.909Z,26.20
2019-02-07T20:03:36.219Z,26.20
2019-02-07T20:06:31.206Z,26.20
2019-02-07T20:09:26.345Z,26.20
2019-02-07T20:12:21.158Z,26.10
2019-02-07T20:15:21.502Z,26.10
2019-02-07T20:34:07.396Z,26.00
2019-02-07T20:37:08.542Z,26.60
2019-02-07T20:40:13.195Z,26.60
2019-02-07T20:43:16.058Z,26.50
2019-02-07T20:46:19.275Z,26.40
2019-02-07T20:49:23.997Z,26.40
2019-02-07T20:52:28.119Z,26.30
2019-02-07T20:55:31.522Z,26.30
2019-02-07T20:58:33.089Z,26.30
2019-02-07T21:01:36.779Z,26.20
2019-02-07T21:04:39.936Z,26.20
2019-02-07T21:07:44.112Z,26.20
2019-02-07T21:10:48.214Z,26.20
2019-02-07T21:13:51.962Z,26.20
2019-02-07T21:16:54.375Z,26.20
2019-02-07T21:19:57.502Z,26.20
2019-02-07T21:22:57.445Z,26.20
2019-02-07T21:25:56.745Z,26.10
2019-02-07T21:28:58.325Z,26.10
2019-02-07T21:32:02.248Z,26.10
2019-02-07T21:35:05.326Z,26.10
2019-02-07T21:38:09.170Z,26.10
2019-02-07T21:41:12.912Z,26.10
2019-02-07T21:44:14.776Z,26.10
2019-02-07T21:47:19.059Z,26.10
2019-02-07T21:50:23.795Z,26.00
2019-02-07T21:53:22.884Z,26.00
2019-02-07T21:56:26.441Z,26.00
2019-02-07T21:59:29.433Z,26.00
2019-02-07T22:02:33.034Z,26.00
2019-02-07T22:05:37.198Z,26.00
2019-02-07T22:08:40.613Z,25.90
2019-02-07T22:11:44.047Z,25.90
2019-02-07T22:14:48.357Z,25.90
2019-02-07T22:17:51.323Z,25.90
2019-02-07T22:20:54.569Z,25.90
2019-02-07T22:23:58.804Z,25.80
2019-02-07T22:27:03.031Z,25.80
2019-02-07T22:30:05.946Z,25.80
2019-02-07T22:33:07.207Z,25.80
2019-02-07T22:36:01.704Z,25.80
2019-02-07T22:38:57.288Z,25.70
2019-02-07T22:41:51.958Z,25.70
2019-02-07T22:44:46.908Z,25.70
2019-02-07T22:47:41.719Z,25.60
2019-02-07T22:50:36.810Z,25.60
2019-02-07T22:53:31.372Z,25.60
2019-02-07T22:56:25.940Z,25.60
2019-02-07T22:59:20.800Z,25.60
2019-02-07T23:02:16.218Z,25.50
2019-02-07T23:05:11.299Z,25.50
2019-02-07T23:08:06.465Z,25.50
2019-02-07T23:11:07.956Z,25.50
2019-02-07T23:14:12.763Z,25.50
2019-02-07T23:17:16.980Z,25.50
2019-02-07T23:20:21.009Z,25.50
2019-02-07T23:23:27.502Z,25.50
2019-02-07T23:26:30.155Z,25.50
2019-02-07T23:29:35.719Z,25.50
2019-02-07T23:32:34.546Z,25.40
2019-02-07T23:35:37.100Z,25.40
2019-02-07T23:38:37.036Z,25.40
2019-02-07T23:41:40.886Z,25.40
2019-02-07T23:44:44.423Z,25.40
2019-02-07T23:47:44.715Z,25.40
2019-02-07T23:50:43.788Z,25.40
2019-02-07T23:53:43.429Z,25.40
2019-02-07T23:56:43.348Z,25.40
2019-02-07T23:59:43.192Z,25.40
